Okayama, Japan
Current Conditions -  °F | °C
As of 9:00 PM on Thursday 18 Dec 2014 (Local Time) from RJOB Reporting Station
Scattered Clouds Scattered Clouds  
Wind Chill: 28°   Ceiling: Unl
Heat Index: 28°   Visibility: 6mi
Dew Point: 25°   Wind: 2mph
Humidity: 86%   Direction: 280°W
Pressure: 30.39"   Gusts: NA
Location:  34.67°N, 133.92°E
Report Text: RJOB 181200Z 28002KT 9999 FEW020 SCT045 M02/M04 Q1029
Loading
Personal Weather Stations






























Interactive Weather Map New forecast layout! Learn more

10-Day Weather Forecast

Advertisements
Track Severe Weather on mobile